sensor_id;sensor_type;location;lat;lon;timestamp;pressure;altitude;pressure_sealevel;temperature;humidity
37694;BME280;23531;50.122;8.644;2023-03-08T03:03:53;98921.31;;;6.13;70.44
37694;BME280;23531;50.122;8.644;2023-03-08T03:05:55;98918.50;;;6.08;69.85
37694;BME280;23531;50.122;8.644;2023-03-08T03:07:56;98926.63;;;5.88;69.40
37694;BME280;23531;50.122;8.644;2023-03-08T03:09:58;98932.19;;;5.80;69.52
37694;BME280;23531;50.122;8.644;2023-03-08T03:11:59;98922.75;;;5.84;69.86
37694;BME280;23531;50.122;8.644;2023-03-08T03:14:01;98923.22;;;5.74;69.76
37694;BME280;23531;50.122;8.644;2023-03-08T03:16:04;98924.56;;;5.90;69.87
37694;BME280;23531;50.122;8.644;2023-03-08T03:18:05;98927.97;;;6.04;69.85
37694;BME280;23531;50.122;8.644;2023-03-08T03:20:08;98930.69;;;5.97;69.71
37694;BME280;23531;50.122;8.644;2023-03-08T03:22:10;98921.06;;;5.96;69.14
37694;BME280;23531;50.122;8.644;2023-03-08T03:24:12;98914.53;;;5.86;68.86
37694;BME280;23531;50.122;8.644;2023-03-08T03:26:14;98917.22;;;5.79;69.15
37694;BME280;23531;50.122;8.644;2023-03-08T03:28:15;98923.34;;;5.86;69.50
37694;BME280;23531;50.122;8.644;2023-03-08T03:30:17;98921.09;;;5.90;68.91
37694;BME280;23531;50.122;8.644;2023-03-08T03:32:18;98920.44;;;5.88;69.29
37694;BME280;23531;50.122;8.644;2023-03-08T03:34:20;98911.69;;;5.80;69.34
37694;BME280;23531;50.122;8.644;2023-03-08T03:36:22;98913.19;;;6.01;69.51
37694;BME280;23531;50.122;8.644;2023-03-08T03:38:23;98916.06;;;6.00;69.24
37694;BME280;23531;50.122;8.644;2023-03-08T03:40:25;98917.16;;;5.92;69.18
37694;BME280;23531;50.122;8.644;2023-03-08T03:42:26;98912.97;;;6.03;69.04
37694;BME280;23531;50.122;8.644;2023-03-08T03:44:27;98913.53;;;6.11;68.96
37694;BME280;23531;50.122;8.644;2023-03-08T03:46:29;98914.22;;;6.00;68.82
37694;BME280;23531;50.122;8.644;2023-03-08T03:48:30;98918.16;;;5.98;69.22
37694;BME280;23531;50.122;8.644;2023-03-08T03:50:31;98917.72;;;6.01;69.14
37694;BME280;23531;50.122;8.644;2023-03-08T03:52:34;98919.06;;;5.85;69.43
37694;BME280;23531;50.122;8.644;2023-03-08T03:54:35;98917.78;;;5.94;69.59
37694;BME280;23531;50.122;8.644;2023-03-08T03:56:36;98919.44;;;5.89;69.82
37694;BME280;23531;50.122;8.644;2023-03-08T03:58:38;98910.38;;;5.96;70.40
37694;BME280;23531;50.122;8.644;2023-03-08T04:00:39;98905.91;;;5.90;70.03
37694;BME280;23531;50.122;8.644;2023-03-08T04:02:40;98909.59;;;5.89;70.78
37694;BME280;23531;50.122;8.644;2023-03-08T04:04:42;98900.25;;;6.05;70.19
37694;BME280;23531;50.122;8.644;2023-03-08T04:06:43;98897.97;;;6.08;70.11
37694;BME280;23531;50.122;8.644;2023-03-08T04:08:45;98895.16;;;6.22;70.30
37694;BME280;23531;50.122;8.644;2023-03-08T04:10:47;98899.47;;;6.23;69.36
37694;BME280;23531;50.122;8.644;2023-03-08T04:12:48;98895.63;;;6.18;70.47
37694;BME280;23531;50.122;8.644;2023-03-08T04:14:50;98896.91;;;6.34;70.16
37694;BME280;23531;50.122;8.644;2023-03-08T04:16:52;98894.44;;;6.33;69.77
37694;BME280;23531;50.122;8.644;2023-03-08T04:18:54;98889.69;;;6.35;69.45
37694;BME280;23531;50.122;8.644;2023-03-08T04:20:55;98897.81;;;6.46;68.77
37694;BME280;23531;50.122;8.644;2023-03-08T04:22:57;98894.31;;;6.28;68.65
37694;BME280;23531;50.122;8.644;2023-03-08T04:24:59;98889.41;;;6.00;68.39
37694;BME280;23531;50.122;8.644;2023-03-08T04:27:01;98884.44;;;6.03;69.21
37694;BME280;23531;50.122;8.644;2023-03-08T04:29:02;98884.59;;;5.83;69.49
37694;BME280;23531;50.122;8.644;2023-03-08T04:31:12;98889.06;;;5.90;69.45
37694;BME280;23531;50.122;8.644;2023-03-08T04:33:13;98881.88;;;5.90;69.88
37694;BME280;23531;50.122;8.644;2023-03-08T04:35:14;98885.09;;;5.99;69.94
37694;BME280;23531;50.122;8.644;2023-03-08T04:37:15;98885.19;;;6.10;69.64
37694;BME280;23531;50.122;8.644;2023-03-08T04:39:17;98879.59;;;5.94;69.30
37694;BME280;23531;50.122;8.644;2023-03-08T04:41:19;98875.97;;;5.81;70.19
37694;BME280;23531;50.122;8.644;2023-03-08T04:43:21;98872.72;;;5.79;70.21
37694;BME280;23531;50.122;8.644;2023-03-08T04:45:22;98863.81;;;5.92;70.31
37694;BME280;23531;50.122;8.644;2023-03-08T04:47:23;98861.75;;;5.88;69.86
37694;BME280;23531;50.122;8.644;2023-03-08T04:49:24;98864.50;;;5.81;70.11
37694;BME280;23531;50.122;8.644;2023-03-08T04:51:26;98848.25;;;5.89;70.53
37694;BME280;23531;50.122;8.644;2023-03-08T04:53:27;98857.53;;;5.80;70.39
37694;BME280;23531;50.122;8.644;2023-03-08T04:55:29;98851.97;;;5.81;70.35
37694;BME280;23531;50.122;8.644;2023-03-08T04:57:32;98849.19;;;5.70;70.46
37694;BME280;23531;50.122;8.644;2023-03-08T04:59:34;98852.56;;;5.83;70.29
37694;BME280;23531;50.122;8.644;2023-03-08T05:01:35;98849.94;;;5.77;70.43
37694;BME280;23531;50.122;8.644;2023-03-08T05:03:36;98851.75;;;5.83;70.56
37694;BME280;23531;50.122;8.644;2023-03-08T05:05:42;98845.28;;;5.72;70.40
37694;BME280;23531;50.122;8.644;2023-03-08T05:07:44;98840.88;;;5.84;70.73
37694;BME280;23531;50.122;8.644;2023-03-08T05:09:45;98835.22;;;5.99;70.31
37694;BME280;23531;50.122;8.644;2023-03-08T05:11:46;98835.72;;;5.90;70.41
37694;BME280;23531;50.122;8.644;2023-03-08T05:13:49;98840.19;;;5.96;70.55
37694;BME280;23531;50.122;8.644;2023-03-08T05:15:50;98833.59;;;5.98;69.96
37694;BME280;23531;50.122;8.644;2023-03-08T05:17:52;98833.75;;;6.03;70.50
37694;BME280;23531;50.122;8.644;2023-03-08T05:19:53;98823.97;;;5.97;70.09
37694;BME280;23531;50.122;8.644;2023-03-08T05:21:54;98822.34;;;5.96;70.76
37694;BME280;23531;50.122;8.644;2023-03-08T05:23:57;98817.09;;;6.08;70.16
37694;BME280;23531;50.122;8.644;2023-03-08T05:25:59;98810.94;;;6.07;70.32
37694;BME280;23531;50.122;8.644;2023-03-08T05:28:01;98823.91;;;6.22;70.28
37694;BME280;23531;50.122;8.644;2023-03-08T05:30:04;98822.97;;;6.16;70.23
37694;BME280;23531;50.122;8.644;2023-03-08T05:32:05;98818.97;;;6.26;70.56
37694;BME280;23531;50.122;8.644;2023-03-08T05:34:10;98823.34;;;6.20;70.40
37694;BME280;23531;50.122;8.644;2023-03-08T05:36:12;98823.81;;;6.10;70.02
37694;BME280;23531;50.122;8.644;2023-03-08T05:38:13;98816.78;;;5.98;70.89
37694;BME280;23531;50.122;8.644;2023-03-08T05:40:14;98813.81;;;5.81;71.31
37694;BME280;23531;50.122;8.644;2023-03-08T05:42:16;98804.31;;;5.92;70.93
37694;BME280;23531;50.122;8.644;2023-03-08T05:44:17;98797.22;;;5.79;70.33
37694;BME280;23531;50.122;8.644;2023-03-08T05:46:20;98792.31;;;5.76;70.38
37694;BME280;23531;50.122;8.644;2023-03-08T05:48:21;98788.34;;;5.85;70.47
37694;BME280;23531;50.122;8.644;2023-03-08T05:50:22;98785.56;;;5.98;70.30
37694;BME280;23531;50.122;8.644;2023-03-08T05:52:24;98787.03;;;5.69;69.57
37694;BME280;23531;50.122;8.644;2023-03-08T05:54:25;98785.16;;;5.52;69.64
37694;BME280;23531;50.122;8.644;2023-03-08T05:56:26;98787.31;;;5.36;70.31
37694;BME280;23531;50.122;8.644;2023-03-08T05:58:27;98783.31;;;5.52;70.68
37694;BME280;23531;50.122;8.644;2023-03-08T06:00:31;98785.41;;;5.43;70.76
37694;BME280;23531;50.122;8.644;2023-03-08T06:02:34;98781.78;;;5.63;71.00
37694;BME280;23531;50.122;8.644;2023-03-08T06:04:35;98783.16;;;5.65;70.82
37694;BME280;23531;50.122;8.644;2023-03-08T06:06:36;98786.13;;;5.82;70.81
37694;BME280;23531;50.122;8.644;2023-03-08T06:08:38;98795.84;;;5.70;70.41
37694;BME280;23531;50.122;8.644;2023-03-08T06:10:40;98794.66;;;5.66;71.08
37694;BME280;23531;50.122;8.644;2023-03-08T06:12:41;98799.19;;;5.40;72.29
37694;BME280;23531;50.122;8.644;2023-03-08T06:14:42;98805.00;;;5.56;72.63
37694;BME280;23531;50.122;8.644;2023-03-08T06:16:44;98813.72;;;5.69;72.05
37694;BME280;23531;50.122;8.644;2023-03-08T06:18:48;98815.06;;;5.78;71.78
37694;BME280;23531;50.122;8.644;2023-03-08T06:20:56;98801.38;;;5.75;71.24
37694;BME280;23531;50.122;8.644;2023-03-08T06:22:58;98779.88;;;5.95;71.24
37694;BME280;23531;50.122;8.644;2023-03-08T06:24:59;98774.94;;;5.42;71.25
37694;BME280;23531;50.122;8.644;2023-03-08T06:27:01;98780.34;;;5.04;73.00
37694;BME280;23531;50.122;8.644;2023-03-08T06:29:02;98788.09;;;5.12;73.05
37694;BME280;23531;50.122;8.644;2023-03-08T06:31:04;98788.59;;;5.27;73.04
37694;BME280;23531;50.122;8.644;2023-03-08T06:33:05;98789.63;;;5.26;72.36
37694;BME280;23531;50.122;8.644;2023-03-08T06:35:08;98790.47;;;5.20;72.70
37694;BME280;23531;50.122;8.644;2023-03-08T06:37:09;98791.91;;;5.23;73.40
37694;BME280;23531;50.122;8.644;2023-03-08T06:39:10;98779.25;;;5.18;73.13
37694;BME280;23531;50.122;8.644;2023-03-08T06:41:12;98793.75;;;4.91;73.58
37694;BME280;23531;50.122;8.644;2023-03-08T06:43:13;98779.88;;;4.82;74.57
37694;BME280;23531;50.122;8.644;2023-03-08T06:45:15;98783.22;;;5.02;74.67
37694;BME280;23531;50.122;8.644;2023-03-08T06:47:16;98778.38;;;5.24;74.40
37694;BME280;23531;50.122;8.644;2023-03-08T06:49:17;98780.38;;;5.54;74.28
37694;BME280;23531;50.122;8.644;2023-03-08T06:51:20;98762.72;;;5.59;73.48
37694;BME280;23531;50.122;8.644;2023-03-08T06:53:21;98761.16;;;5.52;73.14
37694;BME280;23531;50.122;8.644;2023-03-08T06:55:23;98757.88;;;5.25;73.64
37694;BME280;23531;50.122;8.644;2023-03-08T06:57:24;98751.94;;;5.23;73.76
37694;BME280;23531;50.122;8.644;2023-03-08T06:59:25;98752.84;;;5.10;73.75
37694;BME280;23531;50.122;8.644;2023-03-08T07:01:27;98750.50;;;5.20;73.92
37694;BME280;23531;50.122;8.644;2023-03-08T07:03:28;98743.94;;;5.23;73.60
37694;BME280;23531;50.122;8.644;2023-03-08T07:05:30;98749.53;;;5.15;73.60
37694;BME280;23531;50.122;8.644;2023-03-08T07:07:32;98745.84;;;5.16;73.60
37694;BME280;23531;50.122;8.644;2023-03-08T07:09:34;98745.69;;;5.35;73.39
37694;BME280;23531;50.122;8.644;2023-03-08T07:11:35;98744.47;;;5.31;74.13
37694;BME280;23531;50.122;8.644;2023-03-08T07:13:38;98750.28;;;5.28;73.58
37694;BME280;23531;50.122;8.644;2023-03-08T07:15:39;98744.22;;;5.15;74.06
37694;BME280;23531;50.122;8.644;2023-03-08T07:17:41;98738.66;;;5.16;74.13
37694;BME280;23531;50.122;8.644;2023-03-08T07:19:42;98732.47;;;5.22;74.10
37694;BME280;23531;50.122;8.644;2023-03-08T07:21:43;98734.41;;;5.08;74.18
37694;BME280;23531;50.122;8.644;2023-03-08T07:23:46;98724.00;;;5.07;74.02
37694;BME280;23531;50.122;8.644;2023-03-08T07:25:47;98738.34;;;5.06;73.79
37694;BME280;23531;50.122;8.644;2023-03-08T07:27:49;98723.38;;;5.05;74.65
37694;BME280;23531;50.122;8.644;2023-03-08T07:29:50;98719.84;;;5.11;74.77
37694;BME280;23531;50.122;8.644;2023-03-08T07:31:51;98716.38;;;5.35;74.69
37694;BME280;23531;50.122;8.644;2023-03-08T07:33:52;98706.81;;;5.53;74.47
37694;BME280;23531;50.122;8.644;2023-03-08T07:35:54;98701.00;;;5.56;73.59
37694;BME280;23531;50.122;8.644;2023-03-08T07:37:55;98697.53;;;5.55;73.94
37694;BME280;23531;50.122;8.644;2023-03-08T07:39:58;98692.91;;;5.44;73.94
37694;BME280;23531;50.122;8.644;2023-03-08T07:41:59;98686.41;;;5.15;74.13
37694;BME280;23531;50.122;8.644;2023-03-08T07:44:00;98689.50;;;5.12;74.58
37694;BME280;23531;50.122;8.644;2023-03-08T07:46:02;98684.19;;;5.12;74.20
37694;BME280;23531;50.122;8.644;2023-03-08T07:48:04;98674.94;;;5.15;74.56
37694;BME280;23531;50.122;8.644;2023-03-08T07:50:06;98664.28;;;5.15;74.47
37694;BME280;23531;50.122;8.644;2023-03-08T07:52:08;98657.00;;;5.28;74.72
37694;BME280;23531;50.122;8.644;2023-03-08T07:54:09;98652.09;;;5.25;74.89
37694;BME280;23531;50.122;8.644;2023-03-08T07:56:13;98646.56;;;5.45;74.30
37694;BME280;23531;50.122;8.644;2023-03-08T07:58:14;98639.81;;;5.24;74.29
37694;BME280;23531;50.122;8.644;2023-03-08T08:00:16;98642.50;;;5.42;74.90
37694;BME280;23531;50.122;8.644;2023-03-08T08:02:17;98637.03;;;5.56;74.18
37694;BME280;23531;50.122;8.644;2023-03-08T08:04:19;98635.59;;;5.35;73.72
37694;BME280;23531;50.122;8.644;2023-03-08T08:06:22;98631.16;;;5.29;73.97
37694;BME280;23531;50.122;8.644;2023-03-08T08:08:23;98631.69;;;5.37;73.94
37694;BME280;23531;50.122;8.644;2023-03-08T08:10:24;98630.50;;;5.33;74.11
37694;BME280;23531;50.122;8.644;2023-03-08T08:12:27;98633.69;;;5.42;74.22
37694;BME280;23531;50.122;8.644;2023-03-08T08:14:28;98634.50;;;5.42;74.09
37694;BME280;23531;50.122;8.644;2023-03-08T08:16:30;98624.31;;;5.58;74.05
37694;BME280;23531;50.122;8.644;2023-03-08T08:18:31;98622.59;;;5.45;73.87
37694;BME280;23531;50.122;8.644;2023-03-08T08:20:32;98609.03;;;5.46;73.64
37694;BME280;23531;50.122;8.644;2023-03-08T08:22:34;98592.25;;;5.64;74.07
37694;BME280;23531;50.122;8.644;2023-03-08T08:24:36;98585.69;;;5.78;74.15
37694;BME280;23531;50.122;8.644;2023-03-08T08:26:37;98584.59;;;5.86;73.93
37694;BME280;23531;50.122;8.644;2023-03-08T08:28:40;98580.41;;;5.97;73.18
37694;BME280;23531;50.122;8.644;2023-03-08T08:30:42;98569.41;;;6.05;73.23
37694;BME280;23531;50.122;8.644;2023-03-08T08:32:43;98575.34;;;6.07;73.13
37694;BME280;23531;50.122;8.644;2023-03-08T08:34:45;98574.59;;;6.00;72.80
37694;BME280;23531;50.122;8.644;2023-03-08T08:36:46;98577.78;;;5.90;72.45
37694;BME280;23531;50.122;8.644;2023-03-08T08:38:48;98578.75;;;5.96;72.62
37694;BME280;23531;50.122;8.644;2023-03-08T08:40:49;98580.47;;;5.90;71.94
37694;BME280;23531;50.122;8.644;2023-03-08T08:42:50;98579.56;;;5.96;71.82
37694;BME280;23531;50.122;8.644;2023-03-08T08:44:53;98574.69;;;5.93;71.91
37694;BME280;23531;50.122;8.644;2023-03-08T08:46:54;98575.13;;;5.90;71.76
37694;BME280;23531;50.122;8.644;2023-03-08T08:48:56;98577.34;;;5.93;72.36
37694;BME280;23531;50.122;8.644;2023-03-08T08:50:57;98564.88;;;6.05;71.56
37694;BME280;23531;50.122;8.644;2023-03-08T08:52:59;98566.91;;;5.92;71.17
37694;BME280;23531;50.122;8.644;2023-03-08T08:55:00;98560.06;;;5.77;71.77
37694;BME280;23531;50.122;8.644;2023-03-08T08:57:01;98559.88;;;5.97;71.54
37694;BME280;23531;50.122;8.644;2023-03-08T08:59:03;98552.13;;;6.07;71.60
37694;BME280;23531;50.122;8.644;2023-03-08T09:01:11;98543.22;;;6.13;71.05
37694;BME280;23531;50.122;8.644;2023-03-08T09:03:12;98539.09;;;5.99;70.86
37694;BME280;23531;50.122;8.644;2023-03-08T09:05:13;98534.06;;;5.91;71.06
37694;BME280;23531;50.122;8.644;2023-03-08T09:07:15;98530.19;;;6.05;70.89
37694;BME280;23531;50.122;8.644;2023-03-08T09:09:16;98523.03;;;6.17;70.33
37694;BME280;23531;50.122;8.644;2023-03-08T09:11:17;98517.78;;;6.11;70.67
37694;BME280;23531;50.122;8.644;2023-03-08T09:13:18;98514.97;;;5.94;70.71
37694;BME280;23531;50.122;8.644;2023-03-08T09:15:20;98507.22;;;6.04;70.75
37694;BME280;23531;50.122;8.644;2023-03-08T09:17:23;98503.53;;;6.05;70.61
37694;BME280;23531;50.122;8.644;2023-03-08T09:19:24;98504.78;;;6.03;70.45
37694;BME280;23531;50.122;8.644;2023-03-08T09:21:26;98498.19;;;6.05;70.38
37694;BME280;23531;50.122;8.644;2023-03-08T09:23:28;98504.69;;;6.09;70.64
37694;BME280;23531;50.122;8.644;2023-03-08T09:25:29;98506.31;;;6.10;71.17
37694;BME280;23531;50.122;8.644;2023-03-08T09:27:31;98512.38;;;6.17;70.48
37694;BME280;23531;50.122;8.644;2023-03-08T09:29:32;98510.97;;;6.15;69.95
37694;BME280;23531;50.122;8.644;2023-03-08T09:31:35;98505.00;;;6.01;70.47
37694;BME280;23531;50.122;8.644;2023-03-08T09:33:38;98510.34;;;6.01;70.65
37694;BME280;23531;50.122;8.644;2023-03-08T09:35:39;98513.69;;;5.97;71.01
37694;BME280;23531;50.122;8.644;2023-03-08T09:37:40;98501.19;;;5.97;70.56
37694;BME280;23531;50.122;8.644;2023-03-08T09:39:42;98506.19;;;6.05;70.63
37694;BME280;23531;50.122;8.644;2023-03-08T09:41:47;98500.25;;;6.03;70.98
37694;BME280;23531;50.122;8.644;2023-03-08T09:43:51;98501.75;;;5.99;70.47
37694;BME280;23531;50.122;8.644;2023-03-08T09:46:00;98503.84;;;5.97;70.68
37694;BME280;23531;50.122;8.644;2023-03-08T09:48:04;98502.16;;;5.84;70.53
37694;BME280;23531;50.122;8.644;2023-03-08T09:52:31;98493.22;;;6.09;70.63
37694;BME280;23531;50.122;8.644;2023-03-08T09:54:34;98494.03;;;6.09;70.50
37694;BME280;23531;50.122;8.644;2023-03-08T09:56:38;98492.13;;;6.10;70.35
37694;BME280;23531;50.122;8.644;2023-03-08T09:58:42;98500.97;;;6.10;70.42
37694;BME280;23531;50.122;8.644;2023-03-08T10:00:46;98493.75;;;5.99;70.31
37694;BME280;23531;50.122;8.644;2023-03-08T10:02:50;98488.31;;;6.06;70.75
37694;BME280;23531;50.122;8.644;2023-03-08T10:04:56;98484.94;;;6.10;70.42
37694;BME280;23531;50.122;8.644;2023-03-08T10:07:09;98485.88;;;6.04;69.76
37694;BME280;23531;50.122;8.644;2023-03-08T10:09:22;98472.28;;;5.94;70.14
37694;BME280;23531;50.122;8.644;2023-03-08T10:11:27;98462.81;;;5.80;70.32
37694;BME280;23531;50.122;8.644;2023-03-08T10:13:31;98463.75;;;5.86;70.68
37694;BME280;23531;50.122;8.644;2023-03-08T10:15:35;98458.06;;;5.82;70.64
37694;BME280;23531;50.122;8.644;2023-03-08T10:17:41;98451.63;;;5.90;70.95
37694;BME280;23531;50.122;8.644;2023-03-08T10:19:45;98443.88;;;6.00;70.73
37694;BME280;23531;50.122;8.644;2023-03-08T10:21:48;98432.63;;;5.98;70.53
37694;BME280;23531;50.122;8.644;2023-03-08T10:23:54;98432.41;;;6.11;70.26
37694;BME280;23531;50.122;8.644;2023-03-08T10:25:58;98434.75;;;6.07;70.43
37694;BME280;23531;50.122;8.644;2023-03-08T10:28:00;98433.69;;;6.08;70.59
37694;BME280;23531;50.122;8.644;2023-03-08T10:30:09;98435.31;;;6.21;70.76
37694;BME280;23531;50.122;8.644;2023-03-08T10:32:12;98441.56;;;6.03;70.66
37694;BME280;23531;50.122;8.644;2023-03-08T10:34:14;98431.94;;;6.02;70.92
37694;BME280;23531;50.122;8.644;2023-03-08T10:36:16;98430.09;;;6.14;70.51
37694;BME280;23531;50.122;8.644;2023-03-08T10:38:18;98416.41;;;6.23;70.70
37694;BME280;23531;50.122;8.644;2023-03-08T10:40:19;98423.13;;;6.13;70.40
37694;BME280;23531;50.122;8.644;2023-03-08T10:42:23;98412.94;;;6.34;70.27
37694;BME280;23531;50.122;8.644;2023-03-08T10:44:30;98415.16;;;6.37;69.92
37694;BME280;23531;50.122;8.644;2023-03-08T10:46:32;98405.16;;;6.44;70.18
37694;BME280;23531;50.122;8.644;2023-03-08T10:48:34;98403.44;;;6.38;69.72
37694;BME280;23531;50.122;8.644;2023-03-08T10:50:36;98396.22;;;6.27;69.80
37694;BME280;23531;50.122;8.644;2023-03-08T10:52:37;98390.66;;;6.16;70.29
37694;BME280;23531;50.122;8.644;2023-03-08T10:54:38;98389.16;;;6.21;70.74
37694;BME280;23531;50.122;8.644;2023-03-08T10:56:41;98382.53;;;6.23;70.85
37694;BME280;23531;50.122;8.644;2023-03-08T10:58:45;98385.34;;;6.28;70.31
37694;BME280;23531;50.122;8.644;2023-03-08T11:00:50;98379.53;;;6.19;70.63
37694;BME280;23531;50.122;8.644;2023-03-08T11:03:00;98380.34;;;6.20;70.59
37694;BME280;23531;50.122;8.644;2023-03-08T11:05:02;98373.38;;;6.07;71.13
37694;BME280;23531;50.122;8.644;2023-03-08T11:07:09;98378.34;;;5.92;71.09
37694;BME280;23531;50.122;8.644;2023-03-08T11:09:18;98371.28;;;6.09;71.42
37694;BME280;23531;50.122;8.644;2023-03-08T11:11:20;98359.47;;;6.29;70.57
37694;BME280;23531;50.122;8.644;2023-03-08T11:13:23;98358.28;;;6.25;70.54
37694;BME280;23531;50.122;8.644;2023-03-08T11:15:27;98358.75;;;6.22;70.47
37694;BME280;23531;50.122;8.644;2023-03-08T11:17:30;98353.16;;;6.11;70.92
37694;BME280;23531;50.122;8.644;2023-03-08T11:21:54;98359.69;;;6.15;71.07
37694;BME280;23531;50.122;8.644;2023-03-08T11:24:06;98353.75;;;6.13;70.94
37694;BME280;23531;50.122;8.644;2023-03-08T11:26:14;98358.88;;;6.27;70.46
37694;BME280;23531;50.122;8.644;2023-03-08T11:28:22;98365.59;;;6.29;70.10
37694;BME280;23531;50.122;8.644;2023-03-08T11:30:31;98362.94;;;6.41;70.77
37694;BME280;23531;50.122;8.644;2023-03-08T11:32:39;98362.47;;;6.21;70.26
37694;BME280;23531;50.122;8.644;2023-03-08T11:34:55;98353.75;;;6.13;70.58
37694;BME280;23531;50.122;8.644;2023-03-08T11:37:00;98348.41;;;6.25;70.39
37694;BME280;23531;50.122;8.644;2023-03-08T11:39:05;98339.59;;;6.36;70.98
37694;BME280;23531;50.122;8.644;2023-03-08T11:41:12;98341.34;;;6.54;70.42
37694;BME280;23531;50.122;8.644;2023-03-08T11:43:24;98338.53;;;6.49;70.76
37694;BME280;23531;50.122;8.644;2023-03-08T11:45:30;98328.00;;;6.42;70.45
37694;BME280;23531;50.122;8.644;2023-03-08T11:47:43;98332.84;;;6.57;71.01
37694;BME280;23531;50.122;8.644;2023-03-08T11:49:50;98332.38;;;6.48;70.95
37694;BME280;23531;50.122;8.644;2023-03-08T11:51:55;98334.63;;;6.40;71.30
37694;BME280;23531;50.122;8.644;2023-03-08T11:54:04;98336.69;;;6.38;71.53
37694;BME280;23531;50.122;8.644;2023-03-08T11:56:12;98324.00;;;6.56;70.86
37694;BME280;23531;50.122;8.644;2023-03-08T11:58:21;98322.28;;;6.62;71.05
37694;BME280;23531;50.122;8.644;2023-03-08T12:00:23;98316.78;;;6.69;71.11
37694;BME280;23531;50.122;8.644;2023-03-08T12:02:28;98315.66;;;6.65;70.46
37694;BME280;23531;50.122;8.644;2023-03-08T12:04:31;98306.72;;;6.59;70.94
37694;BME280;23531;50.122;8.644;2023-03-08T12:06:37;98313.53;;;6.67;71.60
37694;BME280;23531;50.122;8.644;2023-03-08T12:08:40;98310.28;;;6.76;70.70
37694;BME280;23531;50.122;8.644;2023-03-08T12:10:45;98311.78;;;6.72;71.21
37694;BME280;23531;50.122;8.644;2023-03-08T12:12:50;98299.06;;;6.51;71.20
37694;BME280;23531;50.122;8.644;2023-03-08T12:14:54;98298.50;;;6.49;71.06
37694;BME280;23531;50.122;8.644;2023-03-08T12:16:59;98294.41;;;6.58;71.79
37694;BME280;23531;50.122;8.644;2023-03-08T12:19:07;98296.81;;;6.71;71.66
37694;BME280;23531;50.122;8.644;2023-03-08T12:21:13;98298.53;;;6.77;71.78
37694;BME280;23531;50.122;8.644;2023-03-08T12:23:20;98302.47;;;6.86;71.05
37694;BME280;23531;50.122;8.644;2023-03-08T12:25:26;98297.16;;;6.75;71.05
37694;BME280;23531;50.122;8.644;2023-03-08T12:27:31;98291.97;;;6.56;71.55
37694;BME280;23531;50.122;8.644;2023-03-08T12:29:36;98282.88;;;6.69;71.61
37694;BME280;23531;50.122;8.644;2023-03-08T12:31:41;98280.94;;;6.65;71.53
37694;BME280;23531;50.122;8.644;2023-03-08T12:33:43;98274.47;;;6.49;72.08
37694;BME280;23531;50.122;8.644;2023-03-08T12:35:50;98276.44;;;6.53;71.92
37694;BME280;23531;50.122;8.644;2023-03-08T12:37:57;98265.41;;;6.50;72.50
37694;BME280;23531;50.122;8.644;2023-03-08T12:40:00;98271.38;;;6.69;72.49
37694;BME280;23531;50.122;8.644;2023-03-08T12:42:12;98266.63;;;6.71;72.96
37694;BME280;23531;50.122;8.644;2023-03-08T12:44:21;98270.47;;;6.75;72.39
37694;BME280;23531;50.122;8.644;2023-03-08T12:46:23;98290.47;;;6.89;72.36
37694;BME280;23531;50.122;8.644;2023-03-08T12:48:24;98280.13;;;6.92;72.22
37694;BME280;23531;50.122;8.644;2023-03-08T12:50:26;98278.84;;;6.95;72.17
37694;BME280;23531;50.122;8.644;2023-03-08T12:52:31;98275.84;;;6.91;72.30
37694;BME280;23531;50.122;8.644;2023-03-08T12:54:33;98268.06;;;6.90;72.26
37694;BME280;23531;50.122;8.644;2023-03-08T12:56:35;98266.59;;;6.82;72.34
37694;BME280;23531;50.122;8.644;2023-03-08T12:58:38;98254.16;;;6.88;73.04
37694;BME280;23531;50.122;8.644;2023-03-08T13:00:40;98248.81;;;7.05;72.25
37694;BME280;23531;50.122;8.644;2023-03-08T13:02:42;98253.69;;;7.08;72.58
37694;BME280;23531;50.122;8.644;2023-03-08T13:04:43;98245.28;;;6.99;72.78
37694;BME280;23531;50.122;8.644;2023-03-08T13:07:04;98250.16;;;6.90;72.37
37694;BME280;23531;50.122;8.644;2023-03-08T13:09:14;98248.66;;;6.95;72.36
37694;BME280;23531;50.122;8.644;2023-03-08T13:11:18;98239.94;;;6.99;72.65
37694;BME280;23531;50.122;8.644;2023-03-08T13:13:22;98255.63;;;6.96;72.44
37694;BME280;23531;50.122;8.644;2023-03-08T13:15:27;98252.78;;;7.02;72.40
37694;BME280;23531;50.122;8.644;2023-03-08T13:17:32;98257.66;;;7.05;72.92
37694;BME280;23531;50.122;8.644;2023-03-08T13:19:34;98257.13;;;7.20;73.09
37694;BME280;23531;50.122;8.644;2023-03-08T13:21:37;98261.56;;;7.14;72.34
37694;BME280;23531;50.122;8.644;2023-03-08T13:23:41;98256.66;;;6.95;72.79
37694;BME280;23531;50.122;8.644;2023-03-08T13:25:52;98259.28;;;6.78;73.50
37694;BME280;23531;50.122;8.644;2023-03-08T13:27:57;98256.47;;;6.84;73.45
37694;BME280;23531;50.122;8.644;2023-03-08T13:30:11;98254.69;;;6.90;73.09
37694;BME280;23531;50.122;8.644;2023-03-08T13:32:16;98250.94;;;6.74;74.10
37694;BME280;23531;50.122;8.644;2023-03-08T13:34:21;98255.75;;;6.61;74.40
37694;BME280;23531;50.122;8.644;2023-03-08T13:36:23;98253.97;;;6.66;74.63
37694;BME280;23531;50.122;8.644;2023-03-08T13:38:25;98248.84;;;6.76;74.61
37694;BME280;23531;50.122;8.644;2023-03-08T13:40:27;98249.78;;;6.70;74.68
37694;BME280;23531;50.122;8.644;2023-03-08T13:42:30;98260.13;;;6.67;74.36
37694;BME280;23531;50.122;8.644;2023-03-08T13:44:32;98248.91;;;6.65;74.73
37694;BME280;23531;50.122;8.644;2023-03-08T13:46:34;98253.66;;;6.63;74.65
37694;BME280;23531;50.122;8.644;2023-03-08T13:48:35;98250.13;;;6.74;74.74
37694;BME280;23531;50.122;8.644;2023-03-08T13:50:37;98250.31;;;6.84;74.07
37694;BME280;23531;50.122;8.644;2023-03-08T13:52:41;98258.00;;;6.80;74.39
37694;BME280;23531;50.122;8.644;2023-03-08T13:54:44;98249.28;;;6.85;74.26
37694;BME280;23531;50.122;8.644;2023-03-08T13:56:46;98247.66;;;6.84;74.25
37694;BME280;23531;50.122;8.644;2023-03-08T13:58:55;98256.88;;;6.76;73.71
37694;BME280;23531;50.122;8.644;2023-03-08T14:00:57;98254.31;;;6.70;74.38
37694;BME280;23531;50.122;8.644;2023-03-08T14:02:59;98239.69;;;6.72;73.98
37694;BME280;23531;50.122;8.644;2023-03-08T14:05:01;98242.16;;;6.62;74.35
37694;BME280;23531;50.122;8.644;2023-03-08T14:07:05;98227.41;;;6.60;74.00